McCrary, Mississippi
Current Conditions -  °F | °C
As of 3:50 PM on Wednesday 28 Jan 2015 (Local Time) from KGTR Reporting Station
Clear Clear  
Wind Chill: 57°   Ceiling: Unl
Heat Index: 57°   Visibility: 10mi
Dew Point: 30°   Wind: 7mph
Humidity: 36%   Direction: 170°S
Pressure: 30.22"   Gusts: NA
Location:  33.455°N, 88.5512°W
Report Text: KGTR 282150Z 17006KT 10SM SKC 14/M01 A3022
Loading
Personal Weather Stations






























Interactive Weather Map New forecast layout! Learn more

10-Day Weather Forecast

Advertisements
Track Severe Weather on mobile